createdAt,value
2022-11-17T00:01:28.466Z,97636.97
2022-11-17T00:04:30.789Z,97638.03
2022-11-17T00:07:33.107Z,97642.50
2022-11-17T00:10:35.386Z,97653.63
2022-11-17T00:13:56.237Z,97639.31
2022-11-17T00:17:01.921Z,97649.06
2022-11-17T00:20:23.097Z,97647.53
2022-11-17T00:23:26.281Z,97638.25
2022-11-17T00:26:30.816Z,97640.34
2022-11-17T00:29:36.307Z,97648.25
2022-11-17T00:32:59.834Z,97648.00
2022-11-17T00:36:01.991Z,97644.25
2022-11-17T00:39:04.367Z,97654.53
2022-11-17T00:42:06.561Z,97650.53
2022-11-17T00:45:09.216Z,97640.81
2022-11-17T00:48:12.550Z,97645.28
2022-11-17T00:51:14.747Z,97639.19
2022-11-17T00:54:17.036Z,97646.63
2022-11-17T00:57:19.215Z,97640.56
2022-11-17T01:00:21.622Z,97642.38
2022-11-17T01:03:23.801Z,97631.53
2022-11-17T01:06:26.003Z,97632.09
2022-11-17T01:09:28.173Z,97621.22
2022-11-17T01:12:30.414Z,97612.97
2022-11-17T01:15:33.998Z,97612.50
2022-11-17T01:18:36.650Z,97613.53
2022-11-17T01:21:38.927Z,97596.69
2022-11-17T01:24:41.185Z,97591.41
2022-11-17T01:27:43.469Z,97581.00
2022-11-17T01:30:45.658Z,97600.13
2022-11-17T01:33:48.821Z,97595.88
2022-11-17T01:37:09.392Z,97598.50
2022-11-17T01:40:14.132Z,97596.13
2022-11-17T01:43:16.477Z,97597.69
2022-11-17T01:46:33.939Z,97596.94
2022-11-17T01:49:36.219Z,97594.28
2022-11-17T01:52:40.381Z,97594.97
2022-11-17T01:55:56.921Z,97609.78
2022-11-17T01:59:05.391Z,97612.63
2022-11-17T02:02:07.947Z,97615.25
2022-11-17T02:05:24.468Z,97607.25
2022-11-17T02:08:30.607Z,97614.13
2022-11-17T02:11:36.155Z,97621.34
2022-11-17T02:14:39.434Z,97619.50
2022-11-17T02:17:43.362Z,97618.47
2022-11-17T02:21:13.626Z,97620.78
2022-11-17T02:24:35.242Z,97619.97
2022-11-17T02:27:59.101Z,97610.47
2022-11-17T02:31:16.664Z,97613.34
2022-11-17T02:34:30.699Z,97603.22
2022-11-17T02:37:46.136Z,97594.31
2022-11-17T02:41:17.503Z,97583.41
2022-11-17T02:44:31.328Z,97577.59
2022-11-17T02:47:39.501Z,97584.47
2022-11-17T02:50:44.663Z,97584.22
2022-11-17T02:53:49.363Z,97574.16
2022-11-17T02:56:51.545Z,97576.88
2022-11-17T02:59:53.933Z,97587.13
2022-11-17T03:02:59.172Z,97592.94
2022-11-17T03:06:19.498Z,97592.13
2022-11-17T03:09:33.852Z,97575.50
2022-11-17T03:12:52.949Z,97565.22
2022-11-17T03:15:59.122Z,97551.25
2022-11-17T03:19:06.287Z,97553.06
2022-11-17T03:22:16.339Z,97546.44
2022-11-17T03:25:23.119Z,97546.44
2022-11-17T03:28:28.512Z,97540.34
2022-11-17T03:31:32.769Z,97547.00
2022-11-17T03:34:45.764Z,97547.00
2022-11-17T03:37:53.527Z,97550.66
2022-11-17T03:41:00.204Z,97556.97
2022-11-17T03:44:05.141Z,97571.19
2022-11-17T03:47:09.473Z,97577.81
2022-11-17T03:50:21.599Z,97582.97
2022-11-17T03:53:24.261Z,97581.94
2022-11-17T03:56:29.199Z,97596.69
2022-11-17T03:59:54.487Z,97612.31
2022-11-17T04:03:00.449Z,97604.84
2022-11-17T04:06:02.650Z,97611.34
2022-11-17T04:09:04.862Z,97615.59
2022-11-17T04:12:26.049Z,97610.59
2022-11-17T04:15:47.689Z,97611.34
2022-11-17T04:18:52.284Z,97601.41
2022-11-17T04:21:56.825Z,97606.69
2022-11-17T04:24:59.006Z,97615.38
2022-11-17T04:28:19.801Z,97597.63
2022-11-17T04:31:23.380Z,97604.25
2022-11-17T04:34:25.750Z,97608.97
2022-11-17T04:37:27.953Z,97612.63
2022-11-17T04:40:30.097Z,97610.25
2022-11-17T04:43:32.433Z,97614.13
2022-11-17T04:46:36.818Z,97609.66
2022-11-17T04:49:40.065Z,97632.56
2022-11-17T04:52:42.265Z,97632.00
2022-11-17T04:55:44.493Z,97633.38
2022-11-17T04:58:46.945Z,97627.88
2022-11-17T05:01:49.383Z,97633.38
2022-11-17T05:04:57.529Z,97634.88
2022-11-17T05:08:00.318Z,97633.03
2022-11-17T05:11:21.221Z,97627.53
2022-11-17T05:14:25.649Z,97632.56
2022-11-17T05:17:27.855Z,97626.97
2022-11-17T05:20:32.703Z,97626.16
2022-11-17T05:23:53.884Z,97625.38
2022-11-17T05:26:56.195Z,97626.38
2022-11-17T05:29:58.428Z,97633.47
2022-11-17T05:33:09.287Z,97586.06
2022-11-17T05:36:12.364Z,97616.09
2022-11-17T05:39:14.626Z,97617.94
2022-11-17T05:42:16.911Z,97615.84
2022-11-17T05:45:19.162Z,97623.75
2022-11-17T05:48:21.497Z,97624.00
2022-11-17T05:51:24.347Z,97622.59
2022-11-17T05:54:27.097Z,97634.28
2022-11-17T05:57:32.192Z,97630.84
2022-11-17T06:00:35.915Z,97639.00
2022-11-17T06:03:42.035Z,97648.94
2022-11-17T06:06:45.556Z,97654.00
2022-11-17T06:09:47.948Z,97649.75
2022-11-17T06:12:50.173Z,97648.16
2022-11-17T06:15:54.418Z,97643.69
2022-11-17T06:19:03.806Z,97643.69
2022-11-17T06:22:14.032Z,97650.56
2022-11-17T06:25:19.613Z,97656.06
2022-11-17T06:28:23.002Z,97651.22
2022-11-17T06:31:27.065Z,97652.38
2022-11-17T06:34:31.806Z,97654.22
2022-11-17T06:37:41.329Z,97656.63
2022-11-17T06:41:23.282Z,97655.38
2022-11-17T06:45:38.253Z,97660.78
2022-11-17T06:48:40.724Z,97670.84
2022-11-17T06:52:16.350Z,97669.78
2022-11-17T07:00:06.180Z,97684.38
2022-11-17T07:03:10.967Z,97676.22
2022-11-17T07:06:19.124Z,97683.91
2022-11-17T07:09:21.434Z,97676.59
2022-11-17T07:12:23.683Z,97670.84
2022-11-17T07:15:34.854Z,97663.53
2022-11-17T07:18:38.018Z,97665.94
2022-11-17T07:21:40.420Z,97665.25
2022-11-17T07:24:42.708Z,97666.75
2022-11-17T07:27:44.979Z,97670.53
2022-11-17T07:30:49.902Z,97674.19
2022-11-17T07:33:53.830Z,97668.69
2022-11-17T07:36:56.130Z,97668.69
2022-11-17T07:39:58.403Z,97675.53
2022-11-17T07:43:01.257Z,97674.75
2022-11-17T07:46:08.597Z,97679.22
2022-11-17T07:49:12.348Z,97682.66
2022-11-17T07:52:15.617Z,97677.03
2022-11-17T07:55:18.744Z,97678.88
2022-11-17T07:58:21.085Z,97677.28
2022-11-17T08:01:23.486Z,97674.19
2022-11-17T08:04:25.811Z,97694.81
2022-11-17T08:07:28.460Z,97686.22
2022-11-17T08:10:31.446Z,97689.53
2022-11-17T08:13:34.229Z,97684.50
2022-11-17T08:16:36.612Z,97702.84
2022-11-17T08:19:38.892Z,97699.84
2022-11-17T08:22:41.211Z,97705.13
2022-11-17T08:25:43.579Z,97706.72
2022-11-17T08:28:45.849Z,97720.25
2022-11-17T08:31:48.133Z,97719.22
2022-11-17T08:34:50.358Z,97711.88
2022-11-17T08:37:53.594Z,97722.19
2022-11-17T08:41:01.669Z,97729.31
2022-11-17T08:44:04.108Z,97726.56
2022-11-17T08:47:06.372Z,97737.22
2022-11-17T08:50:22.535Z,97741.66
2022-11-17T08:53:24.912Z,97751.19
2022-11-17T08:56:27.387Z,97756.47
2022-11-17T08:59:29.809Z,97741.66
2022-11-17T09:02:32.102Z,97748.91
2022-11-17T09:05:38.491Z,97748.09
2022-11-17T09:08:46.221Z,97742.81
2022-11-17T09:11:49.644Z,97745.47
2022-11-17T09:14:52.002Z,97760.25
2022-11-17T09:17:54.643Z,97762.09
2022-11-17T09:21:01.608Z,97767.72
2022-11-17T09:24:04.201Z,97765.28
2022-11-17T09:27:06.533Z,97767.00
2022-11-17T09:30:09.202Z,97766.78
2022-11-17T09:33:11.493Z,97773.91
2022-11-17T09:36:15.430Z,97764.94
2022-11-17T09:39:17.737Z,97765.19
2022-11-17T09:42:22.715Z,97764.72
2022-11-17T09:45:35.009Z,97747.97
2022-11-17T09:48:45.530Z,97752.00
2022-11-17T09:51:50.074Z,97742.03
2022-11-17T09:54:57.017Z,97731.72
2022-11-17T09:58:19.525Z,97727.81
2022-11-17T10:01:23.333Z,97732.84
2022-11-17T10:04:29.616Z,97741.56
2022-11-17T10:07:35.047Z,97731.59
2022-11-17T10:11:33.352Z,97743.25
2022-11-17T10:14:39.698Z,97739.03
2022-11-17T10:17:42.787Z,97729.53
2022-11-17T10:20:45.873Z,97721.72
2022-11-17T10:23:57.276Z,97720.59
2022-11-17T10:27:18.056Z,97723.31
2022-11-17T10:30:23.809Z,97741.78
2022-11-17T10:33:53.021Z,97740.41
2022-11-17T10:36:55.405Z,97734.66
2022-11-17T10:40:19.327Z,97726.97
2022-11-17T10:43:26.732Z,97743.94
2022-11-17T10:46:36.745Z,97735.81
2022-11-17T10:49:45.724Z,97747.75
2022-11-17T10:52:49.676Z,97748.75
2022-11-17T10:55:57.009Z,97747.28
2022-11-17T10:59:14.882Z,97753.56
2022-11-17T11:02:20.156Z,97743.03
2022-11-17T11:05:22.397Z,97739.59
2022-11-17T11:18:32.783Z,97733.53
2022-11-17T11:22:18.312Z,97737.41
2022-11-17T11:25:31.308Z,97736.63
2022-11-17T11:28:50.047Z,97738.69
2022-11-17T11:32:30.836Z,97736.03
2022-11-17T11:35:36.227Z,97741.56
2022-11-17T11:38:48.580Z,97742.25
2022-11-17T11:42:09.967Z,97744.66
2022-11-17T11:45:34.872Z,97735.94
2022-11-17T11:48:41.084Z,97727.69
2022-11-17T11:51:46.556Z,97729.53
2022-11-17T11:55:00.072Z,97724.72
2022-11-17T11:58:20.803Z,97734.53
2022-11-17T12:01:23.707Z,97732.50
2022-11-17T12:04:49.082Z,97734.13
2022-11-17T12:08:10.575Z,97745.22
2022-11-17T12:11:35.008Z,97743.16
2022-11-17T12:15:46.868Z,97747.66
2022-11-17T12:18:49.247Z,97738.69
2022-11-17T12:21:56.076Z,97732.38
2022-11-17T12:25:30.210Z,97739.47
2022-11-17T12:33:55.542Z,97752.44
2022-11-17T12:37:26.864Z,97744.75
2022-11-17T12:40:39.317Z,97746.25
2022-11-17T12:43:44.923Z,97745.91
2022-11-17T12:46:48.793Z,97741.91
2022-11-17T12:50:56.058Z,97744.31
2022-11-17T12:54:23.865Z,97740.88
2022-11-17T12:57:32.163Z,97743.72
2022-11-17T13:01:05.639Z,97741.09
2022-11-17T13:04:29.553Z,97747.41
2022-11-17T13:07:32.092Z,97742.16
2022-11-17T13:10:34.406Z,97748.53
2022-11-17T13:14:09.601Z,97752.31
2022-11-17T13:17:55.292Z,97755.78
2022-11-17T13:20:58.415Z,97754.97
2022-11-17T13:24:00.833Z,97758.97
2022-11-17T13:27:09.081Z,97770.91
2022-11-17T13:30:30.593Z,97785.13
2022-11-17T13:33:39.571Z,97774.78
2022-11-17T13:37:04.708Z,97773.22
2022-11-17T13:40:23.067Z,97772.63
2022-11-17T13:43:27.855Z,97781.34
2022-11-17T13:46:30.172Z,97777.91
2022-11-17T13:49:34.651Z,97783.63
2022-11-17T13:52:43.577Z,97774.09
2022-11-17T13:55:48.116Z,97779.97
2022-11-17T13:58:51.617Z,97777.91
2022-11-17T14:02:23.371Z,97784.22
2022-11-17T14:05:30.723Z,97784.22
2022-11-17T14:08:34.290Z,97779.72
2022-11-17T14:11:41.658Z,97774.00
2022-11-17T14:14:45.350Z,97770.09
2022-11-17T14:17:51.822Z,97778.56
2022-11-17T14:21:10.030Z,97770.66
2022-11-17T14:24:13.156Z,97771.00
2022-11-17T14:27:31.902Z,97765.75
2022-11-17T14:30:34.174Z,97773.44
2022-11-17T14:33:36.424Z,97771.81
2022-11-17T14:36:40.536Z,97771.81
2022-11-17T14:39:42.803Z,97784.19
2022-11-17T14:42:45.141Z,97791.09
2022-11-17T14:45:48.917Z,97781.56
2022-11-17T14:48:52.552Z,97779.94
2022-11-17T14:51:56.191Z,97783.03
2022-11-17T14:55:14.244Z,97779.28
2022-11-17T14:58:23.706Z,97770.56
2022-11-17T15:01:41.221Z,97780.75
2022-11-17T15:04:50.674Z,97771.81
2022-11-17T15:07:55.302Z,97766.28
2022-11-17T15:10:57.555Z,97768.38
2022-11-17T15:14:04.254Z,97786.84
2022-11-17T15:17:11.206Z,97784.19
2022-11-17T15:20:15.175Z,97778.94
2022-11-17T15:23:17.477Z,97784.09
2022-11-17T15:26:22.570Z,97797.03
2022-11-17T15:29:24.796Z,97789.13
2022-11-17T15:32:27.028Z,97784.56
2022-11-17T15:35:29.466Z,97781.69
2022-11-17T15:38:33.139Z,97776.66
2022-11-17T15:41:35.449Z,97779.28
2022-11-17T15:44:37.893Z,97774.22
2022-11-17T15:47:40.092Z,97770.78
2022-11-17T15:50:42.451Z,97768.63
2022-11-17T15:53:46.626Z,97760.13
2022-11-17T15:56:49.092Z,97761.72
2022-11-17T15:59:51.970Z,97759.34
2022-11-17T16:02:58.442Z,97769.06
2022-11-17T16:06:01.047Z,97767.47
2022-11-17T16:09:04.908Z,97749.72
2022-11-17T16:12:11.088Z,97758.19
2022-11-17T16:15:27.492Z,97748.91
2022-11-17T16:18:29.965Z,97758.66
2022-11-17T16:21:32.773Z,97747.84
2022-11-17T16:24:35.037Z,97746.28
2022-11-17T16:27:37.269Z,97757.63
2022-11-17T16:30:40.790Z,97764.94
2022-11-17T16:33:55.344Z,97780.75
2022-11-17T16:36:57.648Z,97781.47
2022-11-17T16:40:01.429Z,97780.41
2022-11-17T16:43:03.783Z,97807.13
2022-11-17T16:46:18.930Z,97798.41
2022-11-17T16:49:21.315Z,97813.22
2022-11-17T16:52:23.654Z,97812.03
2022-11-17T16:55:25.913Z,97813.66
2022-11-17T16:58:28.156Z,97807.59
2022-11-17T17:01:32.535Z,97816.31
2022-11-17T17:04:34.892Z,97818.03
2022-11-17T17:07:37.210Z,97831.31
2022-11-17T17:10:39.529Z,97834.97
2022-11-17T17:13:42.777Z,97837.38
2022-11-17T17:16:45.049Z,97842.09
2022-11-17T17:19:47.312Z,97829.47
2022-11-17T17:22:49.612Z,97820.88
2022-11-17T17:26:14.291Z,97822.25
2022-11-17T17:29:16.887Z,97831.22
2022-11-17T17:32:19.281Z,97835.66
2022-11-17T17:35:21.521Z,97834.66
2022-11-17T17:38:23.793Z,97824.31
2022-11-17T17:41:31.177Z,97824.31
2022-11-17T17:44:33.613Z,97820.88
2022-11-17T17:47:35.825Z,97815.59
2022-11-17T17:50:38.141Z,97815.59
2022-11-17T17:53:41.026Z,97817.22
2022-11-17T17:56:43.770Z,97823.50
2022-11-17T17:59:45.981Z,97815.03
2022-11-17T18:02:48.269Z,97823.75
2022-11-17T18:05:50.772Z,97828.22
2022-11-17T18:08:53.030Z,97824.78
2022-11-17T18:11:55.295Z,97816.88
2022-11-17T18:14:58.717Z,97804.94
2022-11-17T18:18:00.965Z,97800.47
2022-11-17T18:21:15.043Z,97806.53
2022-11-17T18:24:17.273Z,97804.72
2022-11-17T18:27:19.525Z,97799.69
2022-11-17T18:30:21.735Z,97794.41
2022-11-17T18:33:24.192Z,97785.69
2022-11-17T18:36:28.162Z,97785.69
2022-11-17T18:39:31.706Z,97782.25
2022-11-17T18:42:33.970Z,97780.63
2022-11-17T18:45:38.316Z,97788.78
2022-11-17T18:48:43.021Z,97778.25
2022-11-17T18:51:45.895Z,97780.88
2022-11-17T18:54:48.128Z,97782.72
2022-11-17T18:57:50.516Z,97783.28
2022-11-17T19:00:52.816Z,97786.16
2022-11-17T19:03:57.728Z,97793.81
2022-11-17T19:07:00.938Z,97785.81
2022-11-17T19:10:06.693Z,97787.72
2022-11-17T19:13:08.919Z,97785.34
2022-11-17T19:16:20.155Z,97780.88
2022-11-17T19:19:22.464Z,97777.44
2022-11-17T19:22:24.740Z,97767.09
2022-11-17T19:25:26.971Z,97769.19
2022-11-17T19:28:29.250Z,97764.38
2022-11-17T19:31:31.873Z,97765.97
2022-11-17T19:34:34.127Z,97776.88
2022-11-17T19:37:36.407Z,97769.41
2022-11-17T19:40:38.775Z,97786.00
2022-11-17T19:43:45.078Z,97776.28
2022-11-17T19:46:47.933Z,97766.75
2022-11-17T19:49:50.218Z,97761.72
2022-11-17T19:52:53.130Z,97759.91
2022-11-17T19:55:57.131Z,97769.81
2022-11-17T19:58:59.589Z,97748.63
2022-11-17T20:02:01.846Z,97770.88
2022-11-17T20:05:09.520Z,97764.00
2022-11-17T20:08:13.249Z,97770.28
2022-11-17T20:11:21.437Z,97778.78
2022-11-17T20:14:23.710Z,97767.19
2022-11-17T20:17:26.021Z,97743.47
2022-11-17T20:20:28.266Z,97742.09
2022-11-17T20:23:33.853Z,97759.97
2022-11-17T20:26:40.523Z,97781.28
2022-11-17T20:29:42.933Z,97786.34
2022-11-17T20:32:45.213Z,97777.97
2022-11-17T20:35:47.433Z,97787.91
2022-11-17T20:38:55.079Z,97783.69
2022-11-17T20:41:57.414Z,97793.06
2022-11-17T20:44:59.689Z,97800.31
2022-11-17T20:48:01.969Z,97806.59
2022-11-17T20:51:06.877Z,97801.34
2022-11-17T20:54:09.385Z,97785.75
2022-11-17T20:57:11.673Z,97778.06
2022-11-17T21:00:14.407Z,97773.81
2022-11-17T21:03:16.922Z,97774.41
2022-11-17T21:06:20.282Z,97785.19
2022-11-17T21:09:22.703Z,97788.03
2022-11-17T21:12:24.931Z,97767.53
2022-11-17T21:15:27.170Z,97784.38
2022-11-17T21:18:29.409Z,97776.09
2022-11-17T21:21:31.928Z,97738.28
2022-11-17T21:24:34.157Z,97770.63
2022-11-17T21:27:36.403Z,97770.16
2022-11-17T21:30:38.676Z,97782.75
2022-11-17T21:33:41.389Z,97792.28
2022-11-17T21:36:43.816Z,97790.91
2022-11-17T21:39:46.047Z,97785.63
2022-11-17T21:42:48.332Z,97789.06
2022-11-17T21:45:50.587Z,97778.53
2022-11-17T21:48:55.050Z,97772.66
2022-11-17T21:51:57.351Z,97774.06
2022-11-17T21:54:59.606Z,97764.19
2022-11-17T21:58:01.933Z,97772.66
2022-11-17T22:01:15.910Z,97764.19
2022-11-17T22:04:19.329Z,97761.56
2022-11-17T22:07:21.653Z,97775.31
2022-11-17T22:10:23.871Z,97766.47
2022-11-17T22:13:26.077Z,97768.09
2022-11-17T22:16:28.334Z,97771.28
2022-11-17T22:19:30.543Z,97762.03
2022-11-17T22:22:32.812Z,97759.38
2022-11-17T22:25:45.267Z,97753.75
2022-11-17T22:28:53.124Z,97743.22
2022-11-17T22:31:55.381Z,97744.25
2022-11-17T22:35:01.425Z,97743.78
2022-11-17T22:38:03.683Z,97745.41
2022-11-17T22:41:07.365Z,97743.00
2022-11-17T22:44:12.845Z,97741.63
2022-11-17T22:47:15.668Z,97733.16
2022-11-17T22:50:18.026Z,97739.78
2022-11-17T22:53:20.296Z,97736.94
2022-11-17T22:56:22.579Z,97729.50
2022-11-17T22:59:26.476Z,97733.72
2022-11-17T23:02:28.876Z,97728.91
2022-11-17T23:05:31.670Z,97722.81
2022-11-17T23:08:33.932Z,97726.25
2022-11-17T23:11:38.002Z,97719.97
2022-11-17T23:14:40.680Z,97727.06
2022-11-17T23:17:42.956Z,97715.72
2022-11-17T23:20:45.270Z,97713.91
2022-11-17T23:23:47.903Z,97708.88
2022-11-17T23:26:50.231Z,97716.53
2022-11-17T23:29:52.489Z,97726.72
2022-11-17T23:32:55.660Z,97732.78
2022-11-17T23:35:58.046Z,97733.59
2022-11-17T23:39:00.327Z,97731.19
2022-11-17T23:42:02.760Z,97725.56
2022-11-17T23:45:05.902Z,97729.81
2022-11-17T23:48:08.138Z,97728.19
2022-11-17T23:51:16.963Z,97722.94
2022-11-17T23:54:19.206Z,97723.72
2022-11-17T23:57:21.488Z,97713.19
